sensor_id;sensor_type;location;lat;lon;timestamp;pressure;altitude;pressure_sealevel;temperature;humidity
53647;BME280;39550;52.230;5.194;2024-01-07T08:09:39;102259.28;;;15.14;65.44
53647;BME280;39550;52.230;5.194;2024-01-07T08:12:05;102261.59;;;14.92;65.72
53647;BME280;39550;52.230;5.194;2024-01-07T08:14:32;102258.81;;;14.78;64.67
53647;BME280;39550;52.230;5.194;2024-01-07T08:16:57;102271.88;;;14.83;65.23
53647;BME280;39550;52.230;5.194;2024-01-07T08:19:22;102270.34;;;15.01;64.88
53647;BME280;39550;52.230;5.194;2024-01-07T08:21:48;102260.94;;;15.10;64.56
53647;BME280;39550;52.230;5.194;2024-01-07T08:24:13;102275.03;;;15.31;63.71
53647;BME280;39550;52.230;5.194;2024-01-07T08:26:38;102263.00;;;15.38;64.27
53647;BME280;39550;52.230;5.194;2024-01-07T08:29:04;102275.09;;;15.34;63.98
53647;BME280;39550;52.230;5.194;2024-01-07T08:31:30;102283.91;;;15.48;63.40
53647;BME280;39550;52.230;5.194;2024-01-07T08:33:55;102276.25;;;15.65;63.85
53647;BME280;39550;52.230;5.194;2024-01-07T08:36:21;102286.66;;;15.67;62.74
53647;BME280;39550;52.230;5.194;2024-01-07T08:38:46;102291.22;;;15.87;63.26
53647;BME280;39550;52.230;5.194;2024-01-07T08:41:11;102288.69;;;15.94;62.24
53647;BME280;39550;52.230;5.194;2024-01-07T08:43:37;102300.88;;;16.03;62.33
53647;BME280;39550;52.230;5.194;2024-01-07T08:46:03;102302.78;;;16.21;61.84
53647;BME280;39550;52.230;5.194;2024-01-07T08:48:29;102305.53;;;16.38;61.08
53647;BME280;39550;52.230;5.194;2024-01-07T08:50:55;102302.84;;;16.30;61.07
53647;BME280;39550;52.230;5.194;2024-01-07T08:53:20;102302.84;;;16.30;61.50
53647;BME280;39550;52.230;5.194;2024-01-07T08:55:47;102296.91;;;16.47;60.61
53647;BME280;39550;52.230;5.194;2024-01-07T08:58:12;102316.97;;;16.65;61.17
53647;BME280;39550;52.230;5.194;2024-01-07T09:00:39;102320.53;;;16.81;60.35
53647;BME280;39550;52.230;5.194;2024-01-07T09:03:05;102311.84;;;16.79;59.97
53647;BME280;39550;52.230;5.194;2024-01-07T09:05:31;102330.97;;;16.81;60.80
53647;BME280;39550;52.230;5.194;2024-01-07T09:07:57;102325.69;;;16.68;60.86
53647;BME280;39550;52.230;5.194;2024-01-07T09:10:22;102334.25;;;16.58;61.31
53647;BME280;39550;52.230;5.194;2024-01-07T09:12:47;102333.25;;;16.36;61.50
53647;BME280;39550;52.230;5.194;2024-01-07T09:15:17;102349.56;;;16.15;62.15
53647;BME280;39550;52.230;5.194;2024-01-07T09:17:43;102355.00;;;16.44;61.79
53647;BME280;39550;52.230;5.194;2024-01-07T09:20:09;102354.25;;;16.65;60.92
53647;BME280;39550;52.230;5.194;2024-01-07T09:22:35;102361.31;;;16.82;60.42
53647;BME280;39550;52.230;5.194;2024-01-07T09:25:04;102371.00;;;16.98;60.04
53647;BME280;39550;52.230;5.194;2024-01-07T09:27:30;102357.97;;;16.95;59.41
53647;BME280;39550;52.230;5.194;2024-01-07T09:29:55;102348.03;;;16.43;60.87
53647;BME280;39550;52.230;5.194;2024-01-07T09:32:21;102373.28;;;16.54;59.53
53647;BME280;39550;52.230;5.194;2024-01-07T09:34:46;102368.78;;;16.32;60.45
53647;BME280;39550;52.230;5.194;2024-01-07T09:37:11;102361.88;;;16.38;60.09
53647;BME280;39550;52.230;5.194;2024-01-07T09:39:40;102380.97;;;16.37;60.71
53647;BME280;39550;52.230;5.194;2024-01-07T09:42:19;102380.84;;;16.24;60.53
53647;BME280;39550;52.230;5.194;2024-01-07T09:44:44;102382.53;;;16.17;60.54
53647;BME280;39550;52.230;5.194;2024-01-07T09:47:12;102374.63;;;16.10;60.79
53647;BME280;39550;52.230;5.194;2024-01-07T09:49:40;102384.97;;;16.02;61.41
53647;BME280;39550;52.230;5.194;2024-01-07T09:52:08;102385.78;;;15.96;60.72
53647;BME280;39550;52.230;5.194;2024-01-07T09:54:36;102376.91;;;15.79;61.48
53647;BME280;39550;52.230;5.194;2024-01-07T09:57:03;102395.94;;;15.78;60.64
53647;BME280;39550;52.230;5.194;2024-01-07T09:59:31;102401.13;;;15.75;61.23
53647;BME280;39550;52.230;5.194;2024-01-07T10:01:57;102401.13;;;15.75;61.31
53647;BME280;39550;52.230;5.194;2024-01-07T10:04:24;102401.25;;;15.84;60.71
53647;BME280;39550;52.230;5.194;2024-01-07T10:06:50;102402.13;;;15.86;60.56
53647;BME280;39550;52.230;5.194;2024-01-07T10:09:17;102409.13;;;15.92;60.50
53647;BME280;39550;52.230;5.194;2024-01-07T10:11:45;102417.75;;;15.89;60.22
53647;BME280;39550;52.230;5.194;2024-01-07T10:14:11;102420.31;;;15.83;60.70
53647;BME280;39550;52.230;5.194;2024-01-07T10:16:39;102425.34;;;15.74;61.24
53647;BME280;39550;52.230;5.194;2024-01-07T10:19:04;102431.31;;;15.63;60.82
53647;BME280;39550;52.230;5.194;2024-01-07T10:21:30;102434.72;;;15.59;61.29
53647;BME280;39550;52.230;5.194;2024-01-07T10:24:13;102440.63;;;15.49;61.56
53647;BME280;39550;52.230;5.194;2024-01-07T10:26:42;102446.09;;;15.68;60.84
53647;BME280;39550;52.230;5.194;2024-01-07T10:29:08;102439.13;;;15.66;60.93
53647;BME280;39550;52.230;5.194;2024-01-07T10:31:33;102449.78;;;15.85;60.78
53647;BME280;39550;52.230;5.194;2024-01-07T10:33:59;102449.91;;;15.97;59.71
53647;BME280;39550;52.230;5.194;2024-01-07T10:36:24;102434.25;;;15.91;60.05
53647;BME280;39550;52.230;5.194;2024-01-07T10:38:51;102444.72;;;15.97;60.03
53647;BME280;39550;52.230;5.194;2024-01-07T10:41:19;102453.44;;;16.03;61.14
53647;BME280;39550;52.230;5.194;2024-01-07T10:43:47;102451.72;;;16.05;61.27
53647;BME280;39550;52.230;5.194;2024-01-07T10:46:13;102451.66;;;15.97;61.11
53647;BME280;39550;52.230;5.194;2024-01-07T10:48:54;102446.75;;;16.25;61.29
53647;BME280;39550;52.230;5.194;2024-01-07T10:51:21;102438.19;;;16.37;60.00
53647;BME280;39550;52.230;5.194;2024-01-07T10:53:51;102440.59;;;16.18;60.75
53647;BME280;39550;52.230;5.194;2024-01-07T10:56:24;102452.94;;;16.39;60.37
53647;BME280;39550;52.230;5.194;2024-01-07T10:58:52;102458.91;;;16.27;60.17
53647;BME280;39550;52.230;5.194;2024-01-07T11:01:18;102447.63;;;16.27;60.37
53647;BME280;39550;52.230;5.194;2024-01-07T11:04:06;102455.38;;;16.22;60.40
53647;BME280;39550;52.230;5.194;2024-01-07T11:09:38;102458.75;;;16.12;60.55
53647;BME280;39550;52.230;5.194;2024-01-07T11:12:05;102467.44;;;16.14;60.92
53647;BME280;39550;52.230;5.194;2024-01-07T11:16:59;102471.84;;;16.21;60.62
53647;BME280;39550;52.230;5.194;2024-01-07T11:19:26;102466.63;;;16.20;60.68
53647;BME280;39550;52.230;5.194;2024-01-07T11:21:51;102459.72;;;16.20;60.23
53647;BME280;39550;52.230;5.194;2024-01-07T11:24:38;102465.88;;;16.28;60.55
53647;BME280;39550;52.230;5.194;2024-01-07T11:27:04;102458.19;;;16.42;59.70
53647;BME280;39550;52.230;5.194;2024-01-07T11:29:31;102452.19;;;16.51;59.93
53647;BME280;39550;52.230;5.194;2024-01-07T11:31:56;102452.22;;;16.54;60.17
53647;BME280;39550;52.230;5.194;2024-01-07T11:34:41;102454.94;;;16.71;59.30
53647;BME280;39550;52.230;5.194;2024-01-07T11:37:13;102456.91;;;16.91;58.48
53647;BME280;39550;52.230;5.194;2024-01-07T11:39:42;102449.97;;;16.97;58.83
53647;BME280;39550;52.230;5.194;2024-01-07T11:42:07;102459.69;;;17.17;57.96
53647;BME280;39550;52.230;5.194;2024-01-07T11:44:36;102453.56;;;17.16;58.18
53647;BME280;39550;52.230;5.194;2024-01-07T11:47:04;102461.47;;;17.24;58.30
53647;BME280;39550;52.230;5.194;2024-01-07T11:49:33;102453.59;;;17.18;58.10
53647;BME280;39550;52.230;5.194;2024-01-07T11:51:58;102454.44;;;17.14;58.50
53647;BME280;39550;52.230;5.194;2024-01-07T11:54:24;102476.16;;;17.17;58.54
53647;BME280;39550;52.230;5.194;2024-01-07T11:56:49;102456.09;;;17.04;58.99
53647;BME280;39550;52.230;5.194;2024-01-07T11:59:15;102460.53;;;17.14;58.98
53647;BME280;39550;52.230;5.194;2024-01-07T12:01:40;102471.81;;;17.19;58.96
53647;BME280;39550;52.230;5.194;2024-01-07T12:04:05;102465.66;;;17.07;59.78
53647;BME280;39550;52.230;5.194;2024-01-07T12:06:31;102466.50;;;16.99;59.57
53647;BME280;39550;52.230;5.194;2024-01-07T12:08:56;102464.72;;;16.92;59.92
53647;BME280;39550;52.230;5.194;2024-01-07T12:11:21;102469.69;;;16.67;60.33
53647;BME280;39550;52.230;5.194;2024-01-07T12:13:47;102465.44;;;16.80;59.93
53647;BME280;39550;52.230;5.194;2024-01-07T12:16:14;102474.25;;;16.93;58.86
53647;BME280;39550;52.230;5.194;2024-01-07T12:18:39;102466.47;;;16.96;59.28
53647;BME280;39550;52.230;5.194;2024-01-07T12:21:05;102473.41;;;16.97;59.66
53647;BME280;39550;52.230;5.194;2024-01-07T12:23:35;102481.88;;;16.72;61.04
53647;BME280;39550;52.230;5.194;2024-01-07T12:26:10;102474.28;;;16.96;62.89
53647;BME280;39550;52.230;5.194;2024-01-07T12:28:38;102481.28;;;17.04;62.27
53647;BME280;39550;52.230;5.194;2024-01-07T12:31:04;102480.38;;;17.00;61.45
53647;BME280;39550;52.230;5.194;2024-01-07T12:33:29;102492.63;;;17.12;61.55
53647;BME280;39550;52.230;5.194;2024-01-07T12:35:56;102486.50;;;17.07;60.39
53647;BME280;39550;52.230;5.194;2024-01-07T12:38:24;102489.34;;;17.41;59.68
53647;BME280;39550;52.230;5.194;2024-01-07T12:40:49;102489.34;;;17.44;59.76
53647;BME280;39550;52.230;5.194;2024-01-07T12:43:14;102478.88;;;17.34;59.78
53647;BME280;39550;52.230;5.194;2024-01-07T12:45:41;102492.78;;;17.36;59.63
53647;BME280;39550;52.230;5.194;2024-01-07T12:48:06;102500.56;;;17.32;61.66
53647;BME280;39550;52.230;5.194;2024-01-07T12:50:31;102498.94;;;17.48;61.28
53647;BME280;39550;52.230;5.194;2024-01-07T12:52:58;102495.41;;;17.41;61.34
53647;BME280;39550;52.230;5.194;2024-01-07T12:55:24;102511.03;;;17.35;62.01
53647;BME280;39550;52.230;5.194;2024-01-07T12:57:50;102504.84;;;17.24;62.32
53647;BME280;39550;52.230;5.194;2024-01-07T13:00:16;102503.09;;;17.19;61.89
53647;BME280;39550;52.230;5.194;2024-01-07T13:02:41;102505.75;;;17.24;62.38
53647;BME280;39550;52.230;5.194;2024-01-07T13:05:07;102485.78;;;17.26;62.54
53647;BME280;39550;52.230;5.194;2024-01-07T13:07:32;102491.13;;;17.51;62.10
53647;BME280;39550;52.230;5.194;2024-01-07T13:09:58;102497.25;;;17.62;62.53
53647;BME280;39550;52.230;5.194;2024-01-07T13:12:24;102473.81;;;17.62;61.80
53647;BME280;39550;52.230;5.194;2024-01-07T13:14:49;102506.03;;;17.75;61.51
53647;BME280;39550;52.230;5.194;2024-01-07T13:17:15;102504.28;;;17.71;61.64
53647;BME280;39550;52.230;5.194;2024-01-07T13:19:40;102498.09;;;17.58;61.72
53647;BME280;39550;52.230;5.194;2024-01-07T13:22:07;102490.22;;;17.44;61.97
53647;BME280;39550;52.230;5.194;2024-01-07T13:24:32;102508.47;;;17.46;61.63
53647;BME280;39550;52.230;5.194;2024-01-07T13:26:57;102507.59;;;17.41;62.18
53647;BME280;39550;52.230;5.194;2024-01-07T13:29:23;102504.84;;;17.22;62.36
53647;BME280;39550;52.230;5.194;2024-01-07T13:31:49;102517.00;;;17.20;63.17
53647;BME280;39550;52.230;5.194;2024-01-07T13:34:14;102511.69;;;17.08;62.87
53647;BME280;39550;52.230;5.194;2024-01-07T13:36:40;102515.19;;;17.10;62.62
53647;BME280;39550;52.230;5.194;2024-01-07T13:39:05;102523.00;;;17.10;62.87
53647;BME280;39550;52.230;5.194;2024-01-07T13:41:33;102534.91;;;16.83;63.50
53647;BME280;39550;52.230;5.194;2024-01-07T13:43:59;102521.03;;;16.85;63.36
53647;BME280;39550;52.230;5.194;2024-01-07T13:46:24;102523.66;;;16.87;63.04
53647;BME280;39550;52.230;5.194;2024-01-07T13:48:50;102526.25;;;16.87;59.61
53647;BME280;39550;52.230;5.194;2024-01-07T13:51:17;102534.88;;;16.78;61.89
53647;BME280;39550;52.230;5.194;2024-01-07T13:53:42;102542.94;;;17.05;60.72
53647;BME280;39550;52.230;5.194;2024-01-07T13:56:08;102542.06;;;17.04;62.17
53647;BME280;39550;52.230;5.194;2024-01-07T13:58:33;102555.13;;;17.09;65.54
53647;BME280;39550;52.230;5.194;2024-01-07T14:01:01;102568.47;;;17.53;70.26
53647;BME280;39550;52.230;5.194;2024-01-07T14:03:27;102557.34;;;17.82;68.98
53647;BME280;39550;52.230;5.194;2024-01-07T14:05:52;102560.88;;;17.89;67.57
53647;BME280;39550;52.230;5.194;2024-01-07T14:08:17;102555.59;;;17.86;66.39
53647;BME280;39550;52.230;5.194;2024-01-07T14:10:42;102571.28;;;17.89;65.18
53647;BME280;39550;52.230;5.194;2024-01-07T14:13:08;102572.09;;;17.82;64.86
53647;BME280;39550;52.230;5.194;2024-01-07T14:15:34;102561.59;;;17.65;64.68
53647;BME280;39550;52.230;5.194;2024-01-07T14:18:00;102573.75;;;17.66;63.77
53647;BME280;39550;52.230;5.194;2024-01-07T14:20:25;102571.97;;;17.56;64.10
53647;BME280;39550;52.230;5.194;2024-01-07T14:22:53;102575.38;;;17.48;64.34
53647;BME280;39550;52.230;5.194;2024-01-07T14:25:18;102591.94;;;17.55;64.20
53647;BME280;39550;52.230;5.194;2024-01-07T14:27:44;102574.44;;;17.35;64.09
53647;BME280;39550;52.230;5.194;2024-01-07T14:30:09;102590.06;;;17.35;64.53
53647;BME280;39550;52.230;5.194;2024-01-07T14:32:35;102608.28;;;17.31;64.26
53647;BME280;39550;52.230;5.194;2024-01-07T14:35:02;102607.44;;;17.33;64.68
53647;BME280;39550;52.230;5.194;2024-01-07T14:37:27;102603.03;;;17.28;64.74
53647;BME280;39550;52.230;5.194;2024-01-07T14:39:53;102614.38;;;17.34;64.42
53647;BME280;39550;52.230;5.194;2024-01-07T14:42:18;102610.06;;;17.38;63.76
53647;BME280;39550;52.230;5.194;2024-01-07T14:44:44;102610.91;;;17.35;63.68
53647;BME280;39550;52.230;5.194;2024-01-07T14:47:09;102620.47;;;17.33;65.24
53647;BME280;39550;52.230;5.194;2024-01-07T14:49:34;102624.03;;;17.46;65.85
53647;BME280;39550;52.230;5.194;2024-01-07T14:51:59;102617.97;;;17.49;65.61
53647;BME280;39550;52.230;5.194;2024-01-07T14:54:25;102620.59;;;17.50;64.86
53647;BME280;39550;52.230;5.194;2024-01-07T14:56:50;102628.34;;;17.43;64.97
53647;BME280;39550;52.230;5.194;2024-01-07T14:59:15;102619.66;;;17.41;64.31
53647;BME280;39550;52.230;5.194;2024-01-07T15:01:41;102629.16;;;17.39;64.55
53647;BME280;39550;52.230;5.194;2024-01-07T15:04:09;102630.91;;;17.36;64.28
53647;BME280;39550;52.230;5.194;2024-01-07T15:06:41;102633.50;;;17.33;63.65
53647;BME280;39550;52.230;5.194;2024-01-07T15:09:06;102633.44;;;17.27;64.68
53647;BME280;39550;52.230;5.194;2024-01-07T15:11:32;102643.00;;;17.28;64.32
53647;BME280;39550;52.230;5.194;2024-01-07T15:13:57;102647.25;;;17.20;64.74
53647;BME280;39550;52.230;5.194;2024-01-07T15:16:23;102659.47;;;17.24;64.47
53647;BME280;39550;52.230;5.194;2024-01-07T15:18:48;102656.00;;;17.25;64.30
53647;BME280;39550;52.230;5.194;2024-01-07T15:21:13;102660.28;;;17.20;64.28
53647;BME280;39550;52.230;5.194;2024-01-07T15:23:39;102659.34;;;17.12;64.20
53647;BME280;39550;52.230;5.194;2024-01-07T15:26:04;102672.38;;;17.15;64.71
53647;BME280;39550;52.230;5.194;2024-01-07T15:28:29;102662.81;;;17.11;64.08
53647;BME280;39550;52.230;5.194;2024-01-07T15:30:55;102675.09;;;17.24;63.69
53647;BME280;39550;52.230;5.194;2024-01-07T15:33:21;102679.47;;;17.27;63.69
53647;BME280;39550;52.230;5.194;2024-01-07T15:35:46;102675.13;;;17.30;63.08
53647;BME280;39550;52.230;5.194;2024-01-07T15:38:12;102683.91;;;17.42;63.41
53647;BME280;39550;52.230;5.194;2024-01-07T15:40:37;102687.41;;;17.41;62.86
53647;BME280;39550;52.230;5.194;2024-01-07T15:43:02;102676.06;;;17.34;63.07
53647;BME280;39550;52.230;5.194;2024-01-07T15:45:28;102689.09;;;17.35;63.12
53647;BME280;39550;52.230;5.194;2024-01-07T15:47:53;102688.28;;;17.44;62.85
53647;BME280;39550;52.230;5.194;2024-01-07T15:50:18;102688.25;;;17.38;63.34
53647;BME280;39550;52.230;5.194;2024-01-07T15:52:44;102689.13;;;17.42;63.13
53647;BME280;39550;52.230;5.194;2024-01-07T15:55:14;102693.34;;;17.24;63.92
53647;BME280;39550;52.230;5.194;2024-01-07T15:57:40;102705.59;;;17.38;63.50
53647;BME280;39550;52.230;5.194;2024-01-07T16:00:07;102711.56;;;17.24;63.83
53647;BME280;39550;52.230;5.194;2024-01-07T16:02:33;102712.16;;;17.00;63.43
53647;BME280;39550;52.230;5.194;2024-01-07T16:04:59;102714.75;;;16.98;63.81
53647;BME280;39550;52.230;5.194;2024-01-07T16:07:24;102707.84;;;17.00;64.24
53647;BME280;39550;52.230;5.194;2024-01-07T16:09:49;102723.53;;;17.07;63.86
53647;BME280;39550;52.230;5.194;2024-01-07T16:12:14;102713.81;;;16.92;63.14
53647;BME280;39550;52.230;5.194;2024-01-07T16:14:40;102711.13;;;16.87;63.47
53647;BME280;39550;52.230;5.194;2024-01-07T16:17:07;102715.56;;;16.91;62.93
53647;BME280;39550;52.230;5.194;2024-01-07T16:19:32;102718.31;;;17.07;62.24
53647;BME280;39550;52.230;5.194;2024-01-07T16:21:58;102736.84;;;17.34;61.98
53647;BME280;39550;52.230;5.194;2024-01-07T16:24:25;102732.66;;;17.49;61.04
53647;BME280;39550;52.230;5.194;2024-01-07T16:26:50;102742.97;;;17.36;61.54
53647;BME280;39550;52.230;5.194;2024-01-07T16:29:16;102745.81;;;17.61;60.93
53647;BME280;39550;52.230;5.194;2024-01-07T16:31:41;102742.03;;;17.33;57.96
53647;BME280;39550;52.230;5.194;2024-01-07T16:34:06;102756.34;;;16.89;57.09
53647;BME280;39550;52.230;5.194;2024-01-07T16:36:32;102754.16;;;17.28;61.22
53647;BME280;39550;52.230;5.194;2024-01-07T16:38:57;102751.22;;;16.98;61.08
53647;BME280;39550;52.230;5.194;2024-01-07T16:41:22;102756.47;;;17.01;61.18
53647;BME280;39550;52.230;5.194;2024-01-07T16:43:48;102750.44;;;17.06;60.19
53647;BME280;39550;52.230;5.194;2024-01-07T16:46:13;102761.94;;;17.23;60.26
53647;BME280;39550;52.230;5.194;2024-01-07T16:48:39;102771.63;;;17.38;59.90
53647;BME280;39550;52.230;5.194;2024-01-07T16:51:04;102758.63;;;17.40;59.88
53647;BME280;39550;52.230;5.194;2024-01-07T16:53:30;102772.38;;;17.26;59.80
53647;BME280;39550;52.230;5.194;2024-01-07T16:55:56;102773.19;;;17.21;59.93
53647;BME280;39550;52.230;5.194;2024-01-07T16:58:21;102756.13;;;17.50;59.32
53647;BME280;39550;52.230;5.194;2024-01-07T17:00:47;102743.84;;;17.42;58.95
53647;BME280;39550;52.230;5.194;2024-01-07T17:03:12;102756.94;;;17.45;59.81
53647;BME280;39550;52.230;5.194;2024-01-07T17:05:38;102772.03;;;16.95;59.19
53647;BME280;39550;52.230;5.194;2024-01-07T17:08:03;102760.03;;;17.10;59.37
53647;BME280;39550;52.230;5.194;2024-01-07T17:10:28;102764.34;;;17.06;59.85
53647;BME280;39550;52.230;5.194;2024-01-07T17:12:54;102781.09;;;17.28;57.32
53647;BME280;39550;52.230;5.194;2024-01-07T17:15:19;102783.88;;;16.75;59.56
53647;BME280;39550;52.230;5.194;2024-01-07T17:17:44;102783.41;;;17.04;59.73
53647;BME280;39550;52.230;5.194;2024-01-07T17:20:12;102791.53;;;17.28;59.03
53647;BME280;39550;52.230;5.194;2024-01-07T17:22:38;102788.91;;;17.27;58.83
53647;BME280;39550;52.230;5.194;2024-01-07T17:25:03;102796.72;;;17.28;58.94
53647;BME280;39550;52.230;5.194;2024-01-07T17:27:29;102800.44;;;17.52;58.71
53647;BME280;39550;52.230;5.194;2024-01-07T17:29:54;102800.34;;;17.41;57.06
53647;BME280;39550;52.230;5.194;2024-01-07T17:32:19;102800.19;;;17.27;59.28
53647;BME280;39550;52.230;5.194;2024-01-07T17:34:48;102801.00;;;17.23;59.05
53647;BME280;39550;52.230;5.194;2024-01-07T17:37:14;102808.84;;;17.26;59.46
53647;BME280;39550;52.230;5.194;2024-01-07T17:39:40;102823.72;;;17.33;59.42
53647;BME280;39550;52.230;5.194;2024-01-07T17:42:05;102801.00;;;17.22;59.12
53647;BME280;39550;52.230;5.194;2024-01-07T17:44:32;102812.06;;;17.04;60.07
53647;BME280;39550;52.230;5.194;2024-01-07T17:46:58;102805.09;;;17.02;60.31
53647;BME280;39550;52.230;5.194;2024-01-07T17:49:23;102815.50;;;17.02;60.17
53647;BME280;39550;52.230;5.194;2024-01-07T17:51:48;102825.88;;;16.96;60.11
53647;BME280;39550;52.230;5.194;2024-01-07T17:54:14;102825.81;;;16.93;60.32
53647;BME280;39550;52.230;5.194;2024-01-07T17:56:39;102816.31;;;16.95;59.84
53647;BME280;39550;52.230;5.194;2024-01-07T17:59:04;102826.03;;;17.09;60.23
53647;BME280;39550;52.230;5.194;2024-01-07T18:01:29;102822.63;;;17.16;60.87
53647;BME280;39550;52.230;5.194;2024-01-07T18:03:55;102826.28;;;17.30;58.59
53647;BME280;39550;52.230;5.194;2024-01-07T18:06:20;102822.66;;;17.19;57.91
53647;BME280;39550;52.230;5.194;2024-01-07T18:08:45;102831.44;;;17.27;59.07
53647;BME280;39550;52.230;5.194;2024-01-07T18:11:10;102834.88;;;17.25;59.38
53647;BME280;39550;52.230;5.194;2024-01-07T18:13:39;102837.41;;;17.17;62.17
53647;BME280;39550;52.230;5.194;2024-01-07T18:16:04;102841.84;;;17.24;62.05
53647;BME280;39550;52.230;5.194;2024-01-07T18:18:32;102836.78;;;17.36;57.42
53647;BME280;39550;52.230;5.194;2024-01-07T18:20:57;102841.09;;;17.34;56.88
53647;BME280;39550;52.230;5.194;2024-01-07T18:23:22;102856.50;;;17.16;55.77
53647;BME280;39550;52.230;5.194;2024-01-07T18:25:48;102848.75;;;17.22;55.05
53647;BME280;39550;52.230;5.194;2024-01-07T18:28:14;102839.16;;;17.19;55.29
53647;BME280;39550;52.230;5.194;2024-01-07T18:30:39;102857.59;;;17.33;56.10
53647;BME280;39550;52.230;5.194;2024-01-07T18:33:05;102864.53;;;17.34;53.71
53647;BME280;39550;52.230;5.194;2024-01-07T18:35:30;102861.03;;;17.31;54.02
53647;BME280;39550;52.230;5.194;2024-01-07T18:37:55;102868.75;;;17.23;54.50
53647;BME280;39550;52.230;5.194;2024-01-07T18:40:21;102858.31;;;17.22;53.68
53647;BME280;39550;52.230;5.194;2024-01-07T18:42:46;102884.53;;;17.34;56.39
53647;BME280;39550;52.230;5.194;2024-01-07T18:45:12;102873.34;;;17.46;55.24
53647;BME280;39550;52.230;5.194;2024-01-07T18:47:39;102880.31;;;17.47;55.61
53647;BME280;39550;52.230;5.194;2024-01-07T18:50:05;102889.19;;;17.61;56.20
53647;BME280;39550;52.230;5.194;2024-01-07T18:52:31;102890.94;;;17.64;56.68
53647;BME280;39550;52.230;5.194;2024-01-07T18:54:56;102878.69;;;17.55;56.98
53647;BME280;39550;52.230;5.194;2024-01-07T18:57:21;102896.09;;;17.56;56.93
53647;BME280;39550;52.230;5.194;2024-01-07T18:59:47;102889.09;;;17.55;57.46
53647;BME280;39550;52.230;5.194;2024-01-07T19:02:12;102890.88;;;17.56;57.21
53647;BME280;39550;52.230;5.194;2024-01-07T19:04:37;102897.88;;;17.60;57.82
53647;BME280;39550;52.230;5.194;2024-01-07T19:07:03;102907.47;;;17.63;57.99
53647;BME280;39550;52.230;5.194;2024-01-07T19:09:28;102895.28;;;17.62;57.98
53647;BME280;39550;52.230;5.194;2024-01-07T19:11:53;102898.66;;;17.51;57.74
53647;BME280;39550;52.230;5.194;2024-01-07T19:14:19;102899.53;;;17.55;58.06
53647;BME280;39550;52.230;5.194;2024-01-07T19:16:44;102908.28;;;17.57;58.49
53647;BME280;39550;52.230;5.194;2024-01-07T19:19:10;102905.31;;;17.29;58.43
53647;BME280;39550;52.230;5.194;2024-01-07T19:21:37;102916.78;;;17.44;58.54
53647;BME280;39550;52.230;5.194;2024-01-07T19:24:02;102916.84;;;17.48;58.55
53647;BME280;39550;52.230;5.194;2024-01-07T19:26:29;102903.78;;;17.45;58.75
53647;BME280;39550;52.230;5.194;2024-01-07T19:28:55;102910.78;;;17.51;59.41
53647;BME280;39550;52.230;5.194;2024-01-07T19:31:24;102910.72;;;17.43;60.28
53647;BME280;39550;52.230;5.194;2024-01-07T19:33:52;102923.63;;;17.35;60.36
53647;BME280;39550;52.230;5.194;2024-01-07T19:36:18;102924.31;;;17.24;60.05
53647;BME280;39550;52.230;5.194;2024-01-07T19:38:44;102908.56;;;17.13;60.18
53647;BME280;39550;52.230;5.194;2024-01-07T19:41:19;102927.13;;;17.38;59.68
53647;BME280;39550;52.230;5.194;2024-01-07T19:43:44;102925.53;;;17.49;61.08
53647;BME280;39550;52.230;5.194;2024-01-07T19:46:09;102929.06;;;17.54;60.08
53647;BME280;39550;52.230;5.194;2024-01-07T19:48:35;102924.75;;;17.55;59.79
53647;BME280;39550;52.230;5.194;2024-01-07T19:51:00;102928.06;;;17.44;61.57
53647;BME280;39550;52.230;5.194;2024-01-07T19:53:25;102927.34;;;17.53;60.05
53647;BME280;39550;52.230;5.194;2024-01-07T19:55:51;102929.59;;;17.27;60.40
53647;BME280;39550;52.230;5.194;2024-01-07T19:58:17;102925.38;;;17.36;59.07
53647;BME280;39550;52.230;5.194;2024-01-07T20:00:45;102941.28;;;17.58;58.47
53647;BME280;39550;52.230;5.194;2024-01-07T20:03:10;102944.50;;;17.39;57.35
53647;BME280;39550;52.230;5.194;2024-01-07T20:05:36;102937.50;;;17.34;58.55
53647;BME280;39550;52.230;5.194;2024-01-07T20:08:01;102947.13;;;17.40;58.34
53647;BME280;39550;52.230;5.194;2024-01-07T20:10:28;102939.22;;;17.32;58.47
53647;BME280;39550;52.230;5.194;2024-01-07T20:12:53;102921.63;;;17.16;58.74
53647;BME280;39550;52.230;5.194;2024-01-07T20:15:22;102935.50;;;17.15;58.47
53647;BME280;39550;52.230;5.194;2024-01-07T20:17:48;102937.28;;;17.16;58.87
53647;BME280;39550;52.230;5.194;2024-01-07T20:20:13;102935.50;;;17.15;58.31
53647;BME280;39550;52.230;5.194;2024-01-07T20:22:38;102935.53;;;17.18;58.76
53647;BME280;39550;52.230;5.194;2024-01-07T20:25:04;102940.81;;;17.21;58.80
53647;BME280;39550;52.230;5.194;2024-01-07T20:27:32;102951.19;;;17.18;59.02
53647;BME280;39550;52.230;5.194;2024-01-07T20:29:57;102932.88;;;17.13;58.78
53647;BME280;39550;52.230;5.194;2024-01-07T20:32:23;102928.41;;;17.03;58.49
53647;BME280;39550;52.230;5.194;2024-01-07T20:34:48;102940.84;;;17.23;58.38
53647;BME280;39550;52.230;5.194;2024-01-07T20:37:14;102941.69;;;17.23;58.21
53647;BME280;39550;52.230;5.194;2024-01-07T20:39:39;102933.75;;;17.14;58.62
53647;BME280;39550;52.230;5.194;2024-01-07T20:42:04;102931.91;;;17.07;58.63
53647;BME280;39550;52.230;5.194;2024-01-07T20:44:30;102944.16;;;17.14;58.46
53647;BME280;39550;52.230;5.194;2024-01-07T20:46:57;102945.78;;;17.04;58.78
53647;BME280;39550;52.230;5.194;2024-01-07T20:49:22;102937.75;;;16.90;58.97
53647;BME280;39550;52.230;5.194;2024-01-07T20:51:47;102943.72;;;16.86;59.24
53647;BME280;39550;52.230;5.194;2024-01-07T20:54:13;102956.84;;;16.89;58.78
53647;BME280;39550;52.230;5.194;2024-01-07T20:56:38;102953.28;;;16.85;59.05
53647;BME280;39550;52.230;5.194;2024-01-07T20:59:03;102958.50;;;16.87;58.37